createdAt,value
2018-05-14T00:03:24.539Z,41.02
2018-05-14T00:04:24.716Z,37.60
2018-05-14T00:05:24.874Z,39.79
2018-05-14T00:06:25.060Z,48.58
2018-05-14T00:07:25.235Z,41.99
2018-05-14T00:08:25.409Z,63.23
2018-05-14T00:09:25.573Z,66.65
2018-05-14T00:10:25.761Z,53.71
2018-05-14T00:11:25.925Z,52.98
2018-05-14T00:12:26.115Z,41.75
2018-05-14T00:13:26.300Z,41.99
2018-05-14T00:14:26.478Z,41.02
2018-05-14T00:15:26.673Z,44.19
2018-05-14T00:18:59.169Z,47.36
2018-05-14T00:19:59.386Z,39.55
2018-05-14T00:20:59.431Z,37.60
2018-05-14T00:21:59.642Z,42.72
2018-05-14T00:22:59.811Z,57.86
2018-05-14T00:24:00.037Z,58.11
2018-05-14T00:25:00.157Z,52.73
2018-05-14T00:26:00.323Z,37.60
2018-05-14T00:27:00.496Z,37.60
2018-05-14T00:28:00.665Z,41.26
2018-05-14T00:29:00.851Z,44.43
2018-05-14T00:30:01.015Z,39.31
2018-05-14T00:31:01.187Z,41.50
2018-05-14T00:32:01.360Z,41.50
2018-05-14T00:36:52.031Z,49.32
2018-05-14T00:37:52.208Z,54.20
2018-05-14T00:38:52.366Z,60.55
2018-05-14T00:39:52.540Z,47.61
2018-05-14T00:40:52.703Z,50.54
2018-05-14T00:41:52.862Z,55.91
2018-05-14T00:42:53.034Z,53.96
2018-05-14T00:43:53.200Z,41.99
2018-05-14T00:44:53.372Z,52.73
2018-05-14T00:48:35.791Z,43.95
2018-05-14T00:49:35.957Z,39.55
2018-05-14T00:50:36.127Z,40.53
2018-05-14T00:51:36.293Z,38.57
2018-05-14T00:52:36.464Z,37.84
2018-05-14T00:53:36.633Z,39.55
2018-05-14T00:54:36.820Z,37.84
2018-05-14T00:55:36.961Z,39.55
2018-05-14T00:56:37.119Z,46.14
2018-05-14T00:57:37.393Z,52.73
2018-05-14T00:58:37.504Z,42.48
2018-05-14T00:59:37.651Z,50.29
2018-05-14T01:00:37.809Z,54.20
2018-05-14T01:01:37.979Z,54.44
2018-05-14T01:05:20.395Z,47.36
2018-05-14T01:06:20.573Z,51.76
2018-05-14T01:07:20.728Z,44.68
2018-05-14T01:08:20.900Z,48.83
2018-05-14T01:09:21.064Z,40.53
2018-05-14T01:10:21.234Z,40.53
2018-05-14T01:11:21.403Z,48.10
2018-05-14T01:12:21.569Z,47.12
2018-05-14T01:13:21.750Z,46.39
2018-05-14T01:16:54.176Z,49.56
2018-05-14T01:17:54.361Z,50.29
2018-05-14T01:18:54.527Z,49.07
2018-05-14T01:19:54.692Z,54.20
2018-05-14T01:20:54.857Z,48.34
2018-05-14T01:21:55.022Z,45.65
2018-05-14T01:22:55.189Z,43.70
2018-05-14T01:23:55.363Z,42.97
2018-05-14T01:24:55.532Z,43.46
2018-05-14T01:25:55.698Z,52.25
2018-05-14T01:26:55.864Z,45.41
2018-05-14T01:27:56.029Z,43.95
2018-05-14T01:28:56.203Z,43.46
2018-05-14T01:29:56.362Z,41.50
2018-05-14T01:33:28.833Z,57.13
2018-05-14T01:34:29.057Z,42.48
2018-05-14T01:35:29.224Z,42.48
2018-05-14T01:36:29.389Z,43.21
2018-05-14T01:37:29.583Z,44.68
2018-05-14T01:38:29.739Z,43.21
2018-05-14T01:39:29.892Z,43.95
2018-05-14T01:40:30.056Z,43.46
2018-05-14T01:41:30.222Z,44.68
2018-05-14T01:42:30.399Z,66.89
2018-05-14T01:43:31.174Z,53.71
2018-05-14T01:44:31.131Z,52.73
2018-05-14T01:45:30.855Z,49.56
2018-05-14T01:46:31.014Z,41.99
2018-05-14T01:50:13.479Z,52.25
2018-05-14T01:51:13.642Z,61.04
2018-05-14T01:52:13.818Z,72.02
2018-05-14T01:53:13.988Z,44.19
2018-05-14T01:54:14.152Z,41.75
2018-05-14T01:55:14.332Z,43.21
2018-05-14T01:56:14.495Z,70.80
2018-05-14T01:57:14.659Z,43.21
2018-05-14T01:58:14.832Z,47.85
2018-05-14T02:01:57.269Z,48.10
2018-05-14T02:02:57.471Z,54.20
2018-05-14T02:03:57.686Z,53.22
2018-05-14T02:04:57.820Z,50.54
2018-05-14T02:05:58.002Z,43.46
2018-05-14T02:06:58.219Z,44.68
2018-05-14T02:07:58.343Z,43.70
2018-05-14T02:08:58.511Z,44.19
2018-05-14T02:09:59.632Z,48.10
2018-05-14T02:10:58.811Z,44.92
2018-05-14T02:11:58.963Z,52.00
2018-05-14T02:12:59.127Z,45.90
2018-05-14T02:13:59.299Z,47.85
2018-05-14T02:14:59.462Z,44.68
2018-05-14T02:18:41.902Z,52.73
2018-05-14T02:19:42.069Z,44.68
2018-05-14T02:20:42.232Z,44.19
2018-05-14T02:21:42.397Z,46.14
2018-05-14T02:22:42.553Z,44.68
2018-05-14T02:23:42.738Z,44.19
2018-05-14T02:24:42.914Z,44.68
2018-05-14T02:25:43.102Z,47.12
2018-05-14T02:26:43.276Z,47.36
2018-05-14T02:27:43.427Z,45.90
2018-05-14T02:28:43.637Z,51.03
2018-05-14T02:29:43.791Z,65.43
2018-05-14T02:30:43.967Z,48.34
2018-05-14T02:31:44.174Z,48.58
2018-05-14T02:35:16.605Z,54.69
2018-05-14T02:36:16.769Z,70.80
2018-05-14T02:37:16.926Z,55.66
2018-05-14T02:38:17.093Z,50.54
2018-05-14T02:39:17.259Z,50.78
2018-05-14T02:40:17.425Z,64.70
2018-05-14T02:41:17.591Z,50.05
2018-05-14T02:42:17.782Z,49.80
2018-05-14T02:43:17.935Z,47.85
2018-05-14T02:44:18.093Z,47.61
2018-05-14T02:45:18.258Z,53.22
2018-05-14T02:46:18.429Z,54.69
2018-05-14T02:47:18.596Z,53.22
2018-05-14T02:48:18.759Z,48.58
2018-05-14T02:51:51.204Z,53.47
2018-05-14T02:52:51.362Z,54.44
2018-05-14T02:53:51.535Z,60.55
2018-05-14T02:54:51.700Z,60.55
2018-05-14T02:55:51.901Z,57.86
2018-05-14T02:56:52.087Z,58.35
2018-05-14T02:57:52.228Z,47.85
2018-05-14T02:58:52.389Z,49.56
2018-05-14T02:59:52.652Z,49.32
2018-05-14T03:00:52.687Z,62.99
2018-05-14T03:01:52.887Z,49.32
2018-05-14T03:02:53.055Z,67.14
2018-05-14T03:03:53.191Z,57.13
2018-05-14T03:04:53.367Z,58.59
2018-05-14T03:08:25.801Z,55.18
2018-05-14T03:09:25.964Z,54.69
2018-05-14T03:10:26.161Z,69.58
2018-05-14T03:11:26.297Z,68.12
2018-05-14T03:12:26.457Z,61.04
2018-05-14T03:13:26.621Z,68.36
2018-05-14T03:14:26.788Z,73.00
2018-05-14T03:15:26.956Z,62.74
2018-05-14T03:16:27.157Z,58.84
2018-05-14T03:17:27.323Z,56.88
2018-05-14T03:18:27.487Z,61.04
2018-05-14T03:19:28.164Z,68.36
2018-05-14T03:20:27.827Z,77.39
2018-05-14T03:21:27.992Z,80.08
2018-05-14T03:25:00.440Z,66.89
2018-05-14T03:26:00.620Z,69.09
2018-05-14T03:27:00.788Z,73.00
2018-05-14T03:28:00.952Z,61.28
2018-05-14T03:29:01.117Z,74.46
2018-05-14T03:30:01.306Z,72.02
2018-05-14T03:31:01.472Z,66.16
2018-05-14T03:32:01.635Z,63.48
2018-05-14T03:33:01.802Z,66.65
2018-05-14T03:36:44.255Z,63.48
2018-05-14T03:37:44.412Z,62.01
2018-05-14T03:38:44.581Z,73.73
2018-05-14T03:39:44.747Z,62.50
2018-05-14T03:40:44.911Z,59.08
2018-05-14T03:41:45.069Z,73.97
2018-05-14T03:42:45.302Z,59.08
2018-05-14T03:43:45.397Z,70.31
2018-05-14T03:44:45.574Z,59.08
2018-05-14T03:45:45.749Z,74.71
2018-05-14T03:46:45.909Z,74.46
2018-05-14T03:47:46.078Z,77.64
2018-05-14T03:48:46.246Z,78.13
2018-05-14T03:49:46.403Z,69.09
2018-05-14T03:53:29.151Z,67.38
2018-05-14T03:54:29.313Z,77.15
2018-05-14T03:55:29.491Z,70.31
2018-05-14T03:56:29.668Z,73.97
2018-05-14T03:57:29.883Z,64.94
2018-05-14T03:58:30.038Z,64.70
2018-05-14T03:59:30.204Z,65.67
2018-05-14T04:00:30.369Z,67.63
2018-05-14T04:01:30.537Z,67.87
2018-05-14T04:02:30.769Z,66.16
2018-05-14T04:03:30.864Z,72.51
2018-05-14T04:04:31.032Z,67.14
2018-05-14T04:05:31.195Z,64.45
2018-05-14T04:06:31.360Z,75.44
2018-05-14T04:10:13.782Z,59.33
2018-05-14T04:11:13.944Z,56.64
2018-05-14T04:12:14.112Z,63.23
2018-05-14T04:13:14.276Z,72.27
2018-05-14T04:14:15.159Z,55.66
2018-05-14T04:15:14.573Z,56.88
2018-05-14T04:16:14.753Z,59.81
2018-05-14T04:17:14.935Z,77.64
2018-05-14T04:18:15.087Z,60.79
2018-05-14T04:19:15.254Z,86.18
2018-05-14T04:20:15.418Z,67.38
2018-05-14T04:21:15.587Z,71.78
2018-05-14T04:22:15.758Z,79.35
2018-05-14T04:23:15.906Z,63.23
2018-05-14T04:27:05.508Z,82.28
2018-05-14T04:27:58.441Z,77.88
2018-05-14T04:28:58.666Z,69.09
2018-05-14T04:29:58.785Z,73.49
2018-05-14T04:30:58.953Z,76.90
2018-05-14T04:31:59.177Z,71.78
2018-05-14T04:32:59.328Z,61.04
2018-05-14T04:33:59.495Z,69.09
2018-05-14T04:34:59.687Z,83.25
2018-05-14T04:35:59.834Z,70.31
2018-05-14T04:37:00.021Z,72.02
2018-05-14T04:38:00.210Z,60.06
2018-05-14T04:39:00.400Z,73.73
2018-05-14T04:40:00.658Z,66.16
2018-05-14T04:41:00.714Z,60.79
2018-05-14T04:44:43.444Z,66.41
2018-05-14T04:45:43.620Z,66.89
2018-05-14T04:46:43.784Z,68.85
2018-05-14T04:47:43.954Z,63.96
2018-05-14T04:48:44.127Z,70.31
2018-05-14T04:49:44.277Z,61.04
2018-05-14T04:50:44.444Z,65.43
2018-05-14T04:51:44.610Z,62.26
2018-05-14T04:52:44.776Z,64.70
2018-05-14T04:56:27.234Z,63.23
2018-05-14T04:57:27.419Z,60.79
2018-05-14T04:58:27.581Z,69.58
2018-05-14T04:59:27.741Z,66.89
2018-05-14T05:00:27.914Z,74.22
2018-05-14T05:01:28.115Z,71.53
2018-05-14T05:02:28.278Z,68.85
2018-05-14T05:03:35.910Z,62.99
2018-05-14T05:04:28.594Z,66.16
2018-05-14T05:05:28.757Z,79.35
2018-05-14T05:06:28.934Z,72.51
2018-05-14T05:07:29.133Z,67.14
2018-05-14T05:08:29.293Z,81.05
2018-05-14T05:09:29.455Z,72.75
2018-05-14T05:10:29.663Z,73.97
2018-05-14T05:11:29.869Z,62.74
2018-05-14T05:12:30.141Z,65.19
2018-05-14T05:13:31.015Z,69.34
2018-05-14T05:14:30.221Z,66.65
2018-05-14T05:15:30.396Z,69.58
2018-05-14T05:16:39.517Z,80.57
2018-05-14T05:17:30.682Z,78.86
2018-05-14T05:18:30.895Z,77.15
2018-05-14T05:19:31.066Z,62.99
2018-05-14T05:20:31.233Z,74.22
2018-05-14T05:21:31.403Z,69.58
2018-05-14T05:22:31.561Z,77.39
2018-05-14T05:23:31.785Z,85.45
2018-05-14T05:24:31.958Z,77.39
2018-05-14T05:25:32.173Z,73.73
2018-05-14T05:26:33.050Z,73.24
2018-05-14T05:27:40.503Z,75.20
2018-05-14T05:28:32.650Z,64.70
2018-05-14T05:29:32.829Z,71.04
2018-05-14T05:30:33.001Z,73.97
2018-05-14T05:31:33.146Z,74.46
2018-05-14T05:32:33.411Z,80.81
2018-05-14T05:33:34.133Z,73.00
2018-05-14T05:34:54.784Z,70.31
2018-05-14T05:35:33.790Z,81.54
2018-05-14T05:36:33.985Z,77.64
2018-05-14T05:37:34.164Z,77.39
2018-05-14T05:41:16.931Z,88.13
2018-05-14T05:42:23.962Z,73.24
2018-05-14T05:43:17.244Z,67.63
2018-05-14T05:44:17.445Z,71.04
2018-05-14T05:45:17.633Z,69.09
2018-05-14T05:46:17.783Z,72.51
2018-05-14T05:47:18.017Z,73.73
2018-05-14T05:48:18.052Z,72.02
2018-05-14T05:49:18.267Z,75.44
2018-05-14T05:50:18.411Z,63.23
2018-05-14T05:51:18.582Z,69.58
2018-05-14T05:52:18.792Z,74.95
2018-05-14T05:53:18.949Z,66.41
2018-05-14T05:54:19.127Z,72.51
2018-05-14T05:58:13.594Z,74.71
2018-05-14T05:59:13.762Z,79.59
2018-05-14T06:00:14.423Z,72.27
2018-05-14T06:01:14.113Z,73.49
2018-05-14T06:02:14.251Z,76.66
2018-05-14T06:03:14.431Z,72.02
2018-05-14T06:04:15.432Z,70.80
2018-05-14T06:05:14.723Z,73.49
2018-05-14T06:06:14.888Z,69.82
2018-05-14T06:07:15.084Z,66.65
2018-05-14T06:08:15.228Z,76.66
2018-05-14T06:09:15.410Z,66.65
2018-05-14T06:10:15.596Z,65.92
2018-05-14T06:11:15.769Z,71.53
2018-05-14T06:14:48.212Z,82.52
2018-05-14T06:15:48.409Z,66.65
2018-05-14T06:16:48.578Z,76.66
2018-05-14T06:17:48.747Z,65.92
2018-05-14T06:18:48.914Z,78.13
2018-05-14T06:19:49.086Z,72.02
2018-05-14T06:20:56.722Z,82.52
2018-05-14T06:21:50.097Z,70.31
2018-05-14T06:22:49.513Z,66.89
2018-05-14T06:23:49.828Z,67.87
2018-05-14T06:24:49.957Z,77.15
2018-05-14T06:25:58.137Z,76.66
2018-05-14T06:26:50.208Z,75.20
2018-05-14T06:27:50.459Z,83.74
2018-05-14T06:28:50.552Z,74.46
2018-05-14T06:29:50.723Z,83.74
2018-05-14T06:30:50.932Z,71.04
2018-05-14T06:31:51.105Z,74.71
2018-05-14T06:32:51.275Z,78.13
2018-05-14T06:33:51.451Z,82.52
2018-05-14T06:34:51.633Z,66.65
2018-05-14T06:35:51.803Z,76.17
2018-05-14T06:39:34.313Z,82.28
2018-05-14T06:40:34.487Z,64.70
2018-05-14T06:41:34.656Z,72.27
2018-05-14T06:42:34.826Z,73.73
2018-05-14T06:43:35.045Z,75.20
2018-05-14T06:44:35.200Z,78.86
2018-05-14T06:45:35.367Z,67.63
2018-05-14T06:46:35.529Z,75.68
2018-05-14T06:47:35.725Z,72.75
2018-05-14T06:48:35.936Z,67.38
2018-05-14T06:49:36.100Z,78.37
2018-05-14T06:50:36.265Z,63.96
2018-05-14T06:51:36.435Z,74.46
2018-05-14T06:52:36.605Z,73.24
2018-05-14T06:56:27.221Z,72.27
2018-05-14T06:57:19.257Z,70.56
2018-05-14T06:58:19.430Z,67.38
2018-05-14T06:59:19.647Z,71.53
2018-05-14T07:00:27.251Z,74.95
2018-05-14T07:01:19.911Z,66.41
2018-05-14T07:02:20.074Z,77.39
2018-05-14T07:03:20.241Z,67.14
2018-05-14T07:04:20.405Z,67.63
2018-05-14T07:05:20.579Z,70.07
2018-05-14T07:06:20.741Z,70.31
2018-05-14T07:07:20.904Z,63.96
2018-05-14T07:08:21.071Z,62.99
2018-05-14T07:09:21.237Z,80.08
2018-05-14T07:10:21.430Z,75.44
2018-05-14T07:11:22.494Z,75.68
2018-05-14T07:12:22.579Z,71.78
2018-05-14T07:13:21.940Z,73.97
2018-05-14T07:14:22.136Z,73.73
2018-05-14T07:18:04.696Z,73.97
2018-05-14T07:19:04.762Z,78.61
2018-05-14T07:20:04.967Z,73.49
2018-05-14T07:21:05.136Z,80.08
2018-05-14T07:23:10.307Z,78.37
2018-05-14T07:24:10.484Z,76.17
2018-05-14T07:25:10.644Z,78.37
2018-05-14T07:26:10.814Z,63.48
2018-05-14T07:27:18.759Z,66.65
2018-05-14T07:28:11.159Z,67.38
2018-05-14T07:29:11.344Z,68.12
2018-05-14T07:30:11.606Z,68.85
2018-05-14T07:31:11.730Z,73.00
2018-05-14T07:32:12.069Z,68.85
2018-05-14T07:33:12.054Z,73.49
2018-05-14T07:34:12.265Z,75.93
2018-05-14T07:35:12.436Z,73.00
2018-05-14T07:36:12.671Z,70.31
2018-05-14T07:37:12.794Z,73.73
2018-05-14T07:38:12.953Z,70.56
2018-05-14T07:39:13.144Z,74.46
2018-05-14T07:40:13.328Z,73.97
2018-05-14T07:41:13.494Z,73.49
2018-05-14T07:44:45.998Z,76.17
2018-05-14T07:45:46.254Z,79.59
2018-05-14T07:46:46.398Z,79.10
2018-05-14T07:47:46.529Z,75.44
2018-05-14T07:48:46.725Z,70.07
2018-05-14T07:49:46.888Z,76.66
2018-05-14T07:50:47.045Z,78.37
2018-05-14T07:51:47.242Z,72.75
2018-05-14T07:52:47.482Z,82.76
2018-05-14T07:53:47.606Z,88.13
2018-05-14T07:54:47.817Z,77.64
2018-05-14T07:55:48.004Z,74.95
2018-05-14T07:56:48.152Z,78.61
2018-05-14T07:57:48.360Z,78.37
2018-05-14T08:01:28.147Z,71.04
2018-05-14T08:02:21.185Z,69.34
2018-05-14T08:03:21.387Z,65.19
2018-05-14T08:04:21.561Z,71.78
2018-05-14T08:07:54.361Z,75.93
2018-05-14T08:08:54.528Z,67.87
2018-05-14T08:09:54.707Z,92.77
2018-05-14T08:10:54.864Z,73.00
2018-05-14T08:11:55.041Z,67.38
2018-05-14T08:12:55.206Z,68.60
2018-05-14T08:13:55.381Z,68.60
2018-05-14T08:14:55.547Z,72.02
2018-05-14T08:15:55.732Z,70.80
2018-05-14T08:16:55.898Z,70.56
2018-05-14T08:17:56.062Z,69.09
2018-05-14T08:18:56.230Z,67.14
2018-05-14T08:22:35.917Z,78.37
2018-05-14T08:23:29.172Z,77.15
2018-05-14T08:24:30.048Z,70.31
2018-05-14T08:25:36.711Z,69.58
2018-05-14T08:26:29.391Z,73.49
2018-05-14T08:27:29.593Z,67.14
2018-05-14T08:28:29.726Z,77.15
2018-05-14T08:29:30.149Z,65.43
2018-05-14T08:30:30.061Z,75.44
2018-05-14T08:31:30.288Z,78.13
2018-05-14T08:32:30.398Z,74.95
2018-05-14T08:33:30.571Z,78.13
2018-05-14T08:34:30.772Z,74.71
2018-05-14T08:35:30.957Z,77.39
2018-05-14T08:36:31.118Z,72.51
2018-05-14T08:37:31.278Z,73.24
2018-05-14T08:38:31.445Z,66.16
2018-05-14T08:39:31.613Z,77.15
2018-05-14T08:43:14.302Z,75.44
2018-05-14T08:44:21.922Z,74.95
2018-05-14T08:45:14.590Z,71.78
2018-05-14T08:46:14.749Z,67.14
2018-05-14T08:47:14.937Z,86.18
2018-05-14T08:48:15.134Z,79.10
2018-05-14T08:49:15.326Z,68.85
2018-05-14T08:50:23.014Z,69.09
2018-05-14T08:51:15.677Z,69.82
2018-05-14T08:52:15.851Z,80.08
2018-05-14T08:53:16.053Z,70.07
2018-05-14T08:54:16.293Z,65.43
2018-05-14T08:55:16.419Z,72.02
2018-05-14T08:56:16.609Z,75.20
2018-05-14T08:57:16.789Z,63.48
2018-05-14T08:58:17.072Z,64.45
2018-05-14T08:59:17.255Z,72.51
2018-05-14T09:00:17.246Z,78.13
2018-05-14T09:01:17.411Z,72.02
2018-05-14T09:02:17.577Z,67.63
2018-05-14T09:03:17.790Z,65.92
2018-05-14T09:04:17.975Z,64.45
2018-05-14T09:07:50.546Z,63.48
2018-05-14T09:08:50.709Z,67.87
2018-05-14T09:09:50.874Z,65.67
2018-05-14T09:10:51.094Z,66.16
2018-05-14T09:11:51.306Z,68.36
2018-05-14T09:12:51.612Z,69.34
2018-05-14T09:13:51.707Z,65.19
2018-05-14T09:14:51.885Z,73.73
2018-05-14T09:15:52.067Z,73.49
2018-05-14T09:16:52.245Z,83.50
2018-05-14T09:17:52.413Z,80.08
2018-05-14T09:18:52.609Z,68.60
2018-05-14T09:19:53.072Z,64.70
2018-05-14T09:21:01.449Z,66.41
2018-05-14T09:21:53.103Z,67.63
2018-05-14T09:22:53.797Z,78.37
2018-05-14T09:23:53.494Z,83.25
2018-05-14T09:24:53.681Z,63.96
2018-05-14T09:25:53.884Z,74.46
2018-05-14T09:26:54.037Z,63.96
2018-05-14T09:28:02.354Z,71.78
2018-05-14T09:28:54.422Z,66.16
2018-05-14T09:29:54.627Z,66.65
2018-05-14T09:30:54.800Z,74.95
2018-05-14T09:31:54.991Z,68.36
2018-05-14T09:32:55.176Z,68.85
2018-05-14T09:33:55.378Z,73.00
2018-05-14T09:34:55.563Z,62.99
2018-05-14T09:35:55.772Z,64.21
2018-05-14T09:36:55.964Z,70.80
2018-05-14T09:37:56.751Z,76.90
2018-05-14T09:38:56.358Z,69.82
2018-05-14T09:39:56.593Z,75.44
2018-05-14T09:40:56.772Z,69.34
2018-05-14T09:41:56.961Z,67.63
2018-05-14T09:43:04.840Z,71.78
2018-05-14T09:43:57.282Z,64.21
2018-05-14T09:44:57.617Z,62.01
2018-05-14T09:45:57.568Z,70.56
2018-05-14T09:46:57.743Z,69.82
2018-05-14T09:47:57.930Z,78.13
2018-05-14T09:48:58.137Z,68.36
2018-05-14T09:50:05.528Z,77.64
2018-05-14T09:50:58.459Z,62.99
2018-05-14T09:51:58.630Z,69.58
2018-05-14T09:52:58.797Z,66.89
2018-05-14T09:53:58.962Z,68.12
2018-05-14T09:54:59.158Z,71.29
2018-05-14T09:55:59.363Z,67.14
2018-05-14T09:56:59.550Z,73.24
2018-05-14T09:57:59.728Z,73.49
2018-05-14T09:59:00.890Z,72.27
2018-05-14T10:00:00.077Z,67.87
2018-05-14T10:03:43.665Z,66.89
2018-05-14T10:04:43.871Z,67.38
2018-05-14T10:05:45.003Z,67.87
2018-05-14T10:06:45.263Z,72.27
2018-05-14T10:07:44.411Z,66.89
2018-05-14T10:08:51.813Z,69.82
2018-05-14T10:09:44.765Z,66.41
2018-05-14T10:10:44.986Z,69.34
2018-05-14T10:14:17.269Z,65.67
2018-05-14T10:15:17.378Z,70.07
2018-05-14T10:16:17.563Z,66.89
2018-05-14T10:17:17.725Z,67.14
2018-05-14T10:18:17.919Z,65.19
2018-05-14T10:19:18.105Z,72.51
2018-05-14T10:20:18.261Z,73.49
2018-05-14T10:21:18.476Z,67.87
2018-05-14T10:22:18.633Z,74.22
2018-05-14T10:23:18.833Z,75.68
2018-05-14T10:24:19.017Z,74.22
2018-05-14T10:25:19.790Z,70.31
2018-05-14T10:26:19.353Z,65.92
2018-05-14T10:27:19.631Z,67.14
2018-05-14T10:31:01.931Z,71.78
2018-05-14T10:32:09.329Z,69.82
2018-05-14T10:33:02.268Z,66.16
2018-05-14T10:34:02.442Z,78.37
2018-05-14T10:37:34.912Z,77.39
2018-05-14T10:38:35.130Z,73.24
2018-05-14T10:39:35.288Z,66.41
2018-05-14T10:40:35.468Z,66.16
2018-05-14T10:41:35.652Z,73.49
2018-05-14T10:42:35.870Z,74.22
2018-05-14T10:43:35.988Z,75.20
2018-05-14T10:44:36.121Z,71.04
2018-05-14T10:45:36.316Z,70.31
2018-05-14T10:46:36.544Z,68.12
2018-05-14T10:47:36.703Z,74.95
2018-05-14T10:48:36.871Z,68.12
2018-05-14T10:49:37.043Z,73.49
2018-05-14T10:50:37.211Z,77.15
2018-05-14T10:54:30.208Z,72.51
2018-05-14T10:55:19.829Z,67.63
2018-05-14T10:56:19.928Z,65.92
2018-05-14T10:57:27.779Z,67.87
2018-05-14T10:58:21.177Z,73.24
2018-05-14T10:59:20.419Z,69.09
2018-05-14T11:00:21.105Z,77.88
2018-05-14T11:01:20.660Z,70.31
2018-05-14T11:02:20.969Z,71.78
2018-05-14T11:03:20.961Z,71.78
2018-05-14T11:04:21.486Z,75.20
2018-05-14T11:05:21.398Z,74.46
2018-05-14T11:06:21.442Z,66.89
2018-05-14T11:07:22.500Z,70.80
2018-05-14T11:10:55.035Z,88.87
2018-05-14T11:11:55.571Z,67.63
2018-05-14T11:12:56.022Z,70.56
2018-05-14T11:13:55.578Z,77.39
2018-05-14T11:14:55.962Z,72.02
2018-05-14T11:15:55.957Z,75.20
2018-05-14T11:16:56.386Z,74.22
2018-05-14T11:17:56.276Z,67.38
2018-05-14T11:18:56.522Z,70.56
2018-05-14T11:19:57.481Z,67.14
2018-05-14T11:20:56.928Z,72.27
2018-05-14T11:21:57.218Z,79.35
2018-05-14T11:22:57.234Z,71.78
2018-05-14T11:23:57.384Z,71.29
2018-05-14T11:27:30.771Z,77.39
2018-05-14T11:28:30.303Z,67.87
2018-05-14T11:29:30.497Z,66.16
2018-05-14T11:30:30.676Z,91.06
2018-05-14T11:31:31.685Z,68.85
2018-05-14T11:32:30.983Z,68.36
2018-05-14T11:33:31.168Z,81.05
2018-05-14T11:34:31.329Z,77.88
2018-05-14T11:35:32.279Z,68.85
2018-05-14T11:36:31.723Z,73.73
2018-05-14T11:37:32.683Z,81.54
2018-05-14T11:38:32.227Z,67.87
2018-05-14T11:39:32.307Z,67.63
2018-05-14T11:40:33.207Z,74.95
2018-05-14T11:44:06.216Z,76.90
2018-05-14T11:45:06.396Z,67.14
2018-05-14T11:46:06.645Z,71.29
2018-05-14T11:47:14.275Z,72.27
2018-05-14T11:48:06.936Z,62.50
2018-05-14T11:49:07.138Z,87.89
2018-05-14T11:50:14.871Z,85.45
2018-05-14T11:51:07.443Z,68.12
2018-05-14T11:52:07.609Z,65.92
2018-05-14T11:53:07.885Z,74.71
2018-05-14T11:54:07.963Z,66.41
2018-05-14T11:55:08.148Z,76.90
2018-05-14T11:56:08.328Z,74.46
2018-05-14T11:57:08.535Z,76.90
2018-05-14T11:58:08.893Z,72.27
2018-05-14T11:59:08.828Z,70.56
2018-05-14T12:00:08.987Z,65.92
2018-05-14T12:03:41.483Z,85.45
2018-05-14T12:04:41.642Z,76.17
2018-05-14T12:05:41.824Z,69.34
2018-05-14T12:06:42.007Z,78.86
2018-05-14T12:07:42.233Z,75.20
2018-05-14T12:08:51.273Z,72.02
2018-05-14T12:09:42.623Z,74.46
2018-05-14T12:10:42.823Z,66.16
2018-05-14T12:11:50.453Z,62.50
2018-05-14T12:12:43.143Z,67.87
2018-05-14T12:13:51.304Z,68.85
2018-05-14T12:14:43.461Z,66.89
2018-05-14T12:15:43.645Z,68.60
2018-05-14T12:16:43.814Z,64.70
2018-05-14T12:17:43.987Z,67.14
2018-05-14T12:18:44.165Z,70.80
2018-05-14T12:19:44.352Z,73.24
2018-05-14T12:20:44.655Z,77.15
2018-05-14T12:21:44.719Z,76.66
2018-05-14T12:22:44.967Z,66.16
2018-05-14T12:26:27.339Z,69.09
2018-05-14T12:27:27.525Z,69.34
2018-05-14T12:28:27.694Z,70.56
2018-05-14T12:29:27.877Z,73.00
2018-05-14T12:30:28.078Z,70.80
2018-05-14T12:31:28.419Z,71.78
2018-05-14T12:32:36.410Z,68.36
2018-05-14T12:33:28.455Z,74.46
2018-05-14T12:34:28.633Z,72.02
2018-05-14T12:35:28.803Z,73.00
2018-05-14T12:36:28.976Z,77.64
2018-05-14T12:37:29.296Z,72.02
2018-05-14T12:38:29.290Z,77.88
2018-05-14T12:39:29.519Z,73.00
2018-05-14T12:40:29.635Z,65.19
2018-05-14T12:41:29.809Z,71.04
2018-05-14T12:42:29.983Z,69.58
2018-05-14T12:46:12.500Z,62.99
2018-05-14T12:47:12.612Z,69.58
2018-05-14T12:48:13.296Z,70.80
2018-05-14T12:49:12.959Z,72.75
2018-05-14T12:50:13.148Z,71.78
2018-05-14T12:51:13.335Z,75.93
2018-05-14T12:52:13.497Z,66.65
2018-05-14T12:53:13.697Z,70.07
2018-05-14T12:54:13.875Z,68.12
2018-05-14T12:55:14.042Z,73.49
2018-05-14T12:56:14.232Z,66.89
2018-05-14T12:57:23.102Z,65.43
2018-05-14T12:58:14.587Z,63.96
2018-05-14T12:59:15.333Z,67.14
2018-05-14T13:00:14.908Z,73.49
2018-05-14T13:01:23.106Z,71.78
2018-05-14T13:02:15.412Z,67.14
2018-05-14T13:03:15.499Z,82.76
2018-05-14T13:04:15.748Z,79.10
2018-05-14T13:05:15.826Z,76.66
2018-05-14T13:06:15.981Z,86.18
2018-05-14T13:07:16.178Z,70.31
2018-05-14T13:08:16.362Z,71.29
2018-05-14T13:09:16.531Z,63.72
2018-05-14T13:10:16.721Z,63.72
2018-05-14T13:11:16.891Z,80.08
2018-05-14T13:12:17.082Z,79.10
2018-05-14T13:13:17.309Z,80.08
2018-05-14T13:14:17.374Z,78.86
2018-05-14T13:15:17.578Z,73.49
2018-05-14T13:16:17.790Z,73.73
2018-05-14T13:21:31.801Z,70.31
2018-05-14T13:22:31.993Z,79.35
2018-05-14T13:23:40.266Z,78.61
2018-05-14T13:24:34.265Z,75.68
2018-05-14T13:25:40.385Z,72.75
2018-05-14T13:26:32.594Z,69.58
2018-05-14T13:27:32.770Z,70.56
2018-05-14T13:28:32.942Z,70.56
2018-05-14T13:29:33.118Z,84.96
2018-05-14T13:30:33.284Z,74.71
2018-05-14T13:31:33.455Z,71.04
2018-05-14T13:32:33.625Z,72.51
2018-05-14T13:33:33.812Z,74.95
2018-05-14T13:34:33.977Z,83.01
2018-05-14T13:35:34.175Z,71.78
2018-05-14T13:39:16.968Z,72.27
2018-05-14T13:40:17.132Z,69.82
2018-05-14T13:41:17.307Z,76.90
2018-05-14T13:42:17.521Z,74.46
2018-05-14T13:43:17.713Z,73.00
2018-05-14T13:44:17.883Z,69.58
2018-05-14T13:45:18.054Z,70.07
2018-05-14T13:46:25.735Z,69.09
2018-05-14T13:47:18.397Z,72.51
2018-05-14T13:48:18.605Z,75.20
2018-05-14T13:49:18.755Z,68.12
2018-05-14T13:50:26.491Z,67.63
2018-05-14T13:51:19.037Z,68.36
2018-05-14T13:52:19.204Z,70.07
2018-05-14T13:53:19.387Z,67.63
2018-05-14T13:54:19.583Z,68.60
2018-05-14T13:55:19.768Z,72.02
2018-05-14T13:56:20.284Z,74.46
2018-05-14T13:57:20.205Z,74.46
2018-05-14T13:58:20.369Z,78.86
2018-05-14T13:59:20.542Z,66.65
2018-05-14T14:00:21.468Z,70.31
2018-05-14T14:01:20.979Z,68.60
2018-05-14T14:02:21.042Z,71.53
2018-05-14T14:03:22.045Z,66.65
2018-05-14T14:04:21.446Z,76.66
2018-05-14T14:10:35.900Z,73.00
2018-05-14T14:11:36.052Z,67.14
2018-05-14T14:12:43.622Z,73.24
2018-05-14T14:13:36.447Z,76.66
2018-05-14T14:14:36.574Z,65.67
2018-05-14T14:15:36.775Z,74.95
2018-05-14T14:16:36.866Z,74.46
2018-05-14T14:17:37.016Z,76.90
2018-05-14T14:18:37.185Z,66.65
2018-05-14T14:19:37.391Z,71.29
2018-05-14T14:20:37.593Z,77.64
2018-05-14T14:21:37.767Z,67.14
2018-05-14T14:22:37.984Z,66.89
2018-05-14T14:23:38.358Z,73.73
2018-05-14T14:24:38.450Z,72.51
2018-05-14T14:25:38.495Z,67.87
2018-05-14T14:26:38.877Z,67.63
2018-05-14T14:30:21.122Z,69.58
2018-05-14T14:31:29.240Z,83.50
2018-05-14T14:32:21.424Z,65.19
2018-05-14T14:33:21.568Z,84.72
2018-05-14T14:34:21.767Z,74.22
2018-05-14T14:35:21.987Z,72.27
2018-05-14T14:36:22.301Z,76.66
2018-05-14T14:37:29.819Z,68.85
2018-05-14T14:38:22.478Z,72.51
2018-05-14T14:39:22.682Z,72.51
2018-05-14T14:40:22.807Z,71.53
2018-05-14T14:41:24.537Z,75.44
2018-05-14T14:42:23.233Z,71.78
2018-05-14T14:43:23.378Z,73.97
2018-05-14T14:44:23.594Z,68.12
2018-05-14T14:45:23.793Z,70.07
2018-05-14T14:46:24.026Z,68.12
2018-05-14T14:47:24.315Z,73.00
2018-05-14T14:48:24.398Z,76.66
2018-05-14T14:49:24.488Z,72.75
2018-05-14T14:50:24.657Z,73.97
2018-05-14T14:51:24.825Z,75.20
2018-05-14T14:54:58.136Z,69.58
2018-05-14T14:55:57.433Z,74.22
2018-05-14T14:56:57.596Z,74.22
2018-05-14T14:57:57.784Z,80.57
2018-05-14T14:58:57.946Z,73.97
2018-05-14T14:59:58.131Z,81.30
2018-05-14T15:01:06.290Z,77.15
2018-05-14T15:01:58.445Z,70.80
2018-05-14T15:02:58.643Z,74.95
2018-05-14T15:03:58.839Z,72.51
2018-05-14T15:04:59.008Z,71.04
2018-05-14T15:06:00.184Z,75.20
2018-05-14T15:06:59.400Z,71.04
2018-05-14T15:07:59.523Z,68.12